x

Columbia River Bar - 20nm West Of Columbia River Mouth (46029) Wave Buoy

7:50am - Sat 18th Apr 2015 All times are PDT. -7 hours from GMT.

  • Sig Wave height 9.5ft
  • Swell Direction
  • Peak Period 12s
  • Average Period 7s
  • Wind
    18mph, 20mph gusts
  • Sea Temp 53°f
  • Air Temp 52°f
  • Sea Pressure 1027.3mb
  • Columbia River Bar - 20nm West Of Columbia River Mouth
  • Columbia River Bar - 20nm West Of Columbia River Mouth

More Historic Weather Station data

Upgrade to MSW Pro to gain access to the past 30 days of data for over 8000 Wavebouys and Weather Stations around the globe.

Join Pro

Comparision Forecast

View Surf forecast
   
Sat 04/18 7:50am 9.5ft 12s 7s 18 20 mph 1027.3mb 53f 52f
6:50am 9ft 14s 7s 18 20 mph 1027.2mb 53f 52f
5:50am 9ft 12s 7s 18 22 mph 1027mb 53f 52f
4:50am 10ft 13s 7s 18 22 mph 1027mb 54f 52f
3:50am 9ft 14s 7s 18 22 mph 1026.9mb 54f 52f
2:50am 9ft 13s 7s 20 25 mph 1026.7mb 54f 52f
1:50am 9ft 14s 7s 18 22 mph 1026.9mb 54f 52f
12:50am 9ft 11s 7s 18 22 mph 1027.2mb 54f 51f
Fri 04/17 11:50pm 8ft 14s 7s 22 25 mph 1027.2mb 54f 52f
10:50pm 9ft 13s 7s 18 22 mph 1027mb 54f 52f
9:50pm 8.5ft 15s 7s 20 25 mph 1026.8mb 55f 52f
8:50pm 9ft 15s 7s 22 25 mph 1026.1mb 54f 52f
7:50pm 9ft 15s 7s 22 27 mph 1025.4mb 54f 52f
6:50pm 9ft 15s 6s 25 29 mph 1025.8mb 54f 52f
5:50pm 9ft 14s 6s 22 29 mph 1026mb 54f 52f
4:50pm 9ft 13s 6s 27 31 mph 1025.9mb 55f 53f
3:50pm 8.5ft 13s 7s 25 29 mph 1025.9mb 54f 54f
2:50pm 8.5ft 14s 7s 22 25 mph 1026mb 54f 54f
1:50pm 10ft 15s 8s 20 25 mph 1026mb 54f 53f
12:50pm 10ft 15s 8s 20 22 mph 1025.8mb 54f 53f
11:50am 12ft 16s 9s 18 22 mph 1025.8mb 54f 53f
10:50am 10.5ft 16s 9s 20 27 mph 1025.4mb 54f 53f
9:50am 10.5ft 16s 8s 16 20 mph 1024.9mb 54f 53f
8:50am 11ft 15s 8s 13 18 mph 1024.5mb 53f 53f
7:50am 12.5ft 16s 8s 18 20 mph 1024.2mb 53f 53f
6:50am 12ft 15s 8s 25 27 mph 1024.2mb 53f 53f
5:50am 12ft 15s 8s 25 31 mph 1023.8mb 53f 53f
4:50am 11ft 15s 8s 25 31 mph 1023.5mb 53f 53f
3:50am 12ft 16s 9s 20 25 mph 1023.1mb 53f 53f
2:50am 12ft 12s 9s 18 22 mph 1022.8mb 53f 53f
1:50am 12ft 16s 9s 20 27 mph 1022.9mb 53f 53f
12:50am 11ft 16s 9s 22 25 mph 1022.9mb 53f 53f
Thu 04/16 11:50pm 11.5ft 15s 9s 22 25 mph 1022.9mb 53f 53f
10:50pm 12ft 14s 9s 20 25 mph 1022.9mb 54f 53f
9:50pm 14ft 16s 10s 22 25 mph 1022.8mb 54f 53f
8:50pm 14ft 17s 9s 22 27 mph 1022.6mb 54f 53f
7:50pm 13.5ft 16s 9s 25 29 mph 1022.6mb 54f 53f
6:50pm 11ft 16s 8s 25 27 mph 1022.9mb 54f 53f
5:50pm 13.5ft 17s 10s 25 29 mph 1023.3mb 54f 53f
4:50pm 14ft 17s 11s 25 29 mph 1024mb 54f 53f
3:50pm 15ft 17s 10s 25 29 mph 1024.7mb 54f 52f
2:50pm 12ft 17s 10s 22 27 mph 1025.2mb 54f 53f
1:50pm 12ft 19s 10s 20 22 mph 1025.8mb 54f 53f
12:50pm 11ft 19s 10s 18 20 mph 1026.7mb 54f 52f
11:50am 12ft 19s 11s 16 18 mph 1027.3mb 53f 51f
10:50am 10ft 11s 10s 16 18 mph 1027.6mb 53f 51f
9:50am 10ft 21s 10s 16 18 mph 1027.6mb 53f 51f
8:50am 10ft 21s 10s 16 18 mph 1028mb 52f 51f
7:50am 10.5ft 21s 10s 18 20 mph 1028.3mb 52f 51f
6:50am 8.5ft 11s 9s 16 18 mph 1028.5mb 52f 51f
5:50am 8.5ft 11s 8s 16 18 mph 1028.7mb 53f 51f
4:50am 8.5ft 11s 8s 16 18 mph 1029mb 53f 51f
3:50am 9ft 12s 8s 13 16 mph 1029.6mb 53f 51f
2:50am 8.5ft 11s 8s 13 16 mph 1029.9mb 54f 51f
1:50am 7.5ft 11s 8s 16 18 mph 1030.5mb 54f 51f
12:50am 7ft 11s 8s 16 18 mph 1030.9mb 53f 51f
Wed 04/15 11:50pm 7ft 10s 8s 13 18 mph 1031.5mb 53f 51f
10:50pm 7ft 11s 8s 13 18 mph 1031.7mb 54f 51f
9:50pm 7ft 11s 8s 13 18 mph 1031.9mb 54f 51f
8:50pm 7ft 11s 8s 16 18 mph 1031.6mb 54f 51f
7:50pm 6.5ft 11s 8s 13 16 mph 1031.7mb 54f 51f
6:50pm 6.5ft 11s 8s 11 13 mph 1032.4mb 54f 51f
5:50pm 7ft 11s 8s 9 13 mph 1033.2mb 54f 51f
4:50pm 7ft 10s 8s 7 9 mph 1033.7mb 55f 51f
3:50pm 7ft 11s 8s 4 7 mph 1034.1mb 56f 51f
2:50pm 7.5ft 11s 8s 2 4 mph 1034.4mb 57f 51f
1:50pm 7.5ft 12s 8s 2 4 mph 1034.5mb 55f 51f
12:50pm 8ft 10s 8s  -  2 mph 1034.6mb 54f 50f
11:50am 8ft 12s 9s 2
mph
1034.8mb 53f 50f
10:50am 8.5ft 12s 9s 2 4 mph 1034.7mb 53f 50f
9:50am 8ft 11s 9s 4 9 mph 1034.3mb 52f 49f
8:50am 10ft 11s 8s 4 7 mph 1034.3mb 52f 50f
7:50am 10ft 10s 8s 4 7 mph 1034mb 52f 50f
6:50am 9ft 11s 8s 7 9 mph 1033.5mb 53f 49f
5:50am 9.5ft 11s 8s 7 11 mph 1033.1mb 53f 49f
4:50am 8.5ft 11s 8s 9 11 mph 1032.8mb 53f 50f
3:50am 9.5ft 11s 8s 7 9 mph 1032.7mb 53f 49f
2:50am 8.5ft 11s 8s 16 20 mph 1032.5mb 53f 49f
1:50am 8ft 11s 8s 11 13 mph 1032.5mb 53f 48f
12:50am 9.5ft 11s 8s 13 18 mph 1032.4mb 53f 50f
Tue 04/14 11:50pm 9ft 11s 8s 11 16 mph 1032.1mb 53f 50f
10:50pm 9ft 11s 7s 13 18 mph 1031.8mb 53f 50f
9:50pm 8.5ft 11s 7s 13 16 mph 1031.5mb 53f 50f
8:50pm 9ft 11s 8s 16 18 mph 1031mb 53f 50f
7:50pm 9ft 11s 7s 16 20 mph 1030.7mb 53f 50f
6:50pm 10.5ft 11s 8s 18 20 mph 1030.5mb 53f 50f
5:50pm 11ft 12s 8s 18 20 mph 1030.3mb 53f 50f
4:50pm 11.5ft 12s 8s 16 20 mph 1030.3mb 53f 50f